< < Back
Terminal Aerodrome Forecast


Current Version              Previous Versions:   1  2  3  4  5  6  7  8  9  

Terminal Aerodrome Forecast

845
FTUS42 KGSP 220645 AAA
TAFAVL
TAF AMD
KAVL 220645Z 2207/2306 13004KT 3SM -DZ BR SCT004 OVC009
      TEMPO 2207/2210 2SM -DZ BR OVC004
     FM221000 12004KT 3SM -DZ BR OVC006
     FM221300 12004KT 5SM BR OVC008
     FM221900 13005KT P6SM OVC012
     FM230100 13004KT 5SM -DZ BR OVC007=



Latest METAR

015
SAUS70 KWBC 220700 RRC
MTRAVL
METAR KAVL 220654Z AUTO 24004KT 2 1/2SM BR OVC006 04/03 A3012 RMK AO2
RAB02E16 SLP199 P0000 T00390033


USA.gov is the U.S. government's official web portal to all federal, state and local government web resources and services.